createdAt,value
2017-08-12T00:01:56.402Z,83.50
2017-08-12T00:04:23.897Z,84.30
2017-08-12T00:06:52.849Z,85.40
2017-08-12T00:09:20.492Z,85.30
2017-08-12T00:11:47.966Z,83.80
2017-08-12T00:14:15.578Z,84.10
2017-08-12T00:16:43.418Z,84.70
2017-08-12T00:19:10.868Z,84.00
2017-08-12T00:21:40.067Z,84.70
2017-08-12T00:24:08.106Z,84.70
2017-08-12T00:26:36.150Z,84.60
2017-08-12T00:29:03.603Z,85.50
2017-08-12T00:31:31.221Z,85.80
2017-08-12T00:33:58.928Z,85.70
2017-08-12T00:36:26.866Z,85.50
2017-08-12T00:38:55.097Z,85.20
2017-08-12T00:41:22.578Z,85.50
2017-08-12T00:43:50.509Z,85.40
2017-08-12T00:46:18.473Z,85.70
2017-08-12T00:48:46.205Z,85.90
2017-08-12T00:51:15.080Z,87.10
2017-08-12T00:53:42.632Z,87.10
2017-08-12T00:56:10.737Z,87.40
2017-08-12T00:58:38.485Z,87.40
2017-08-12T01:01:07.044Z,86.80
2017-08-12T01:03:34.506Z,86.60
2017-08-12T01:06:03.188Z,87.10
2017-08-12T01:08:30.696Z,87.10
2017-08-12T01:10:58.213Z,87.10
2017-08-12T01:13:27.041Z,86.90
2017-08-12T01:15:55.010Z,86.20
2017-08-12T01:18:23.273Z,86.40
2017-08-12T01:20:50.740Z,85.70
2017-08-12T01:23:18.764Z,85.50
2017-08-12T01:25:46.499Z,86.10
2017-08-12T01:28:14.343Z,84.70
2017-08-12T01:30:42.537Z,85.30
2017-08-12T01:33:10.021Z,85.80
2017-08-12T01:35:38.298Z,85.40
2017-08-12T01:38:07.096Z,86.00
2017-08-12T01:40:36.031Z,86.20
2017-08-12T01:43:03.508Z,86.20
2017-08-12T01:45:31.193Z,86.50
2017-08-12T01:47:59.589Z,87.00
2017-08-12T01:50:27.829Z,86.50
2017-08-12T01:52:55.702Z,86.50
2017-08-12T01:55:25.016Z,86.40
2017-08-12T01:57:53.838Z,87.10
2017-08-12T02:00:21.355Z,86.30
2017-08-12T02:02:50.391Z,85.80
2017-08-12T02:05:18.719Z,85.80
2017-08-12T02:07:46.581Z,85.40
2017-08-12T02:10:14.873Z,84.70
2017-08-12T02:12:42.473Z,84.20
2017-08-12T02:15:10.268Z,82.90
2017-08-12T02:17:38.065Z,83.00
2017-08-12T02:20:06.587Z,81.50
2017-08-12T02:22:34.193Z,81.50
2017-08-12T02:25:01.644Z,79.40
2017-08-12T02:27:30.073Z,77.50
2017-08-12T02:29:57.670Z,77.50
2017-08-12T02:32:25.557Z,77.70
2017-08-12T02:34:53.969Z,78.00
2017-08-12T02:37:21.877Z,78.00
2017-08-12T02:39:49.552Z,78.00
2017-08-12T02:42:18.577Z,78.10
2017-08-12T02:44:47.280Z,78.10
2017-08-12T02:47:15.044Z,77.90
2017-08-12T02:49:42.548Z,77.20
2017-08-12T02:52:11.363Z,77.30
2017-08-12T02:54:38.869Z,77.30
2017-08-12T02:57:06.845Z,76.30
2017-08-12T02:59:34.540Z,76.50
2017-08-12T03:02:02.767Z,75.90
2017-08-12T03:04:30.758Z,75.80
2017-08-12T03:07:00.160Z,77.70
2017-08-12T03:09:28.425Z,76.90
2017-08-12T03:11:56.201Z,76.20
2017-08-12T03:14:23.676Z,76.40
2017-08-12T03:16:51.901Z,77.40
2017-08-12T03:19:20.204Z,77.40
2017-08-12T03:21:48.291Z,77.20
2017-08-12T03:24:16.745Z,77.60
2017-08-12T03:26:44.713Z,77.60
2017-08-12T03:29:12.566Z,77.30
2017-08-12T03:31:40.056Z,77.90
2017-08-12T03:34:08.548Z,78.20
2017-08-12T03:36:37.508Z,77.70
2017-08-12T03:39:05.355Z,77.80
2017-08-12T03:41:33.947Z,77.40
2017-08-12T03:44:01.517Z,78.30
2017-08-12T03:46:30.480Z,79.00
2017-08-12T03:48:57.948Z,78.80
2017-08-12T03:51:25.736Z,79.40
2017-08-12T03:53:54.222Z,79.50
2017-08-12T03:56:22.118Z,79.20
2017-08-12T03:58:49.796Z,79.10
2017-08-12T04:01:18.122Z,79.90
2017-08-12T04:03:46.101Z,80.10
2017-08-12T04:06:14.801Z,79.30
2017-08-12T04:08:42.310Z,79.30
2017-08-12T04:11:10.446Z,78.90
2017-08-12T04:13:39.137Z,79.40
2017-08-12T04:16:07.189Z,79.20
2017-08-12T04:18:34.844Z,79.80
2017-08-12T04:21:02.777Z,80.60
2017-08-12T04:23:31.276Z,79.30
2017-08-12T04:25:59.799Z,78.70
2017-08-12T04:28:27.667Z,79.20
2017-08-12T04:30:55.176Z,80.00
2017-08-12T04:33:24.052Z,79.50
2017-08-12T04:35:51.916Z,79.50
2017-08-12T04:38:20.200Z,79.80
2017-08-12T04:40:47.774Z,80.10
2017-08-12T04:43:16.023Z,79.80
2017-08-12T04:45:43.665Z,79.80
2017-08-12T04:48:11.517Z,79.80
2017-08-12T04:50:39.505Z,79.50
2017-08-12T04:53:07.897Z,80.40
2017-08-12T04:55:35.570Z,79.60
2017-08-12T04:58:03.934Z,80.40
2017-08-12T05:00:31.415Z,80.40
2017-08-12T05:02:59.649Z,80.50
2017-08-12T05:05:27.230Z,80.40
2017-08-12T05:07:56.054Z,79.90
2017-08-12T05:10:23.604Z,79.80
2017-08-12T05:12:52.252Z,80.40
2017-08-12T05:15:19.735Z,80.40
2017-08-12T05:17:47.985Z,80.60
2017-08-12T05:20:15.887Z,80.60
2017-08-12T05:22:44.406Z,80.20
2017-08-12T05:27:13.602Z,80.20
2017-08-12T05:29:41.130Z,79.70
2017-08-12T05:32:10.074Z,80.80
2017-08-12T05:34:37.545Z,80.80
2017-08-12T05:37:05.549Z,80.90
2017-08-12T05:39:33.075Z,81.30
2017-08-12T05:42:00.554Z,81.50
2017-08-12T05:44:28.918Z,81.70
2017-08-12T05:46:56.678Z,81.80
2017-08-12T05:49:25.617Z,82.10
2017-08-12T05:51:53.071Z,82.70
2017-08-12T05:54:20.837Z,81.90
2017-08-12T05:56:48.344Z,82.20
2017-08-12T05:59:16.611Z,81.90
2017-08-12T06:01:45.415Z,81.80
2017-08-12T06:04:13.692Z,82.30
2017-08-12T06:06:41.877Z,82.20
2017-08-12T06:09:10.693Z,81.80
2017-08-12T06:11:43.127Z,82.00
2017-08-12T06:14:11.747Z,82.20
2017-08-12T06:16:39.698Z,82.00
2017-08-12T06:19:09.684Z,81.50
2017-08-12T06:21:38.896Z,81.70
2017-08-12T06:24:08.591Z,81.70
2017-08-12T06:26:36.426Z,81.50
2017-08-12T06:29:07.541Z,82.20
2017-08-12T06:31:35.418Z,83.50
2017-08-12T06:34:03.889Z,82.80
2017-08-12T06:36:33.384Z,82.30
2017-08-12T06:39:02.157Z,83.80
2017-08-12T06:41:31.779Z,84.20
2017-08-12T06:43:59.650Z,83.10
2017-08-12T06:46:27.872Z,84.30
2017-08-12T06:48:57.736Z,84.40
2017-08-12T06:51:26.227Z,83.20
2017-08-12T06:53:54.090Z,83.90
2017-08-12T06:56:22.139Z,83.90
2017-08-12T06:58:49.751Z,83.60
2017-08-12T07:01:17.784Z,83.40
2017-08-12T07:03:45.281Z,84.00
2017-08-12T07:06:13.122Z,84.30
2017-08-12T07:08:42.405Z,84.10
2017-08-12T07:11:10.377Z,84.70
2017-08-12T07:13:37.866Z,84.30
2017-08-12T07:16:06.441Z,84.50
2017-08-12T07:18:34.276Z,85.70
2017-08-12T07:21:02.057Z,85.80
2017-08-12T07:23:31.130Z,86.40
2017-08-12T07:25:59.508Z,85.30
2017-08-12T07:28:27.925Z,87.30
2017-08-12T07:30:58.823Z,87.20
2017-08-12T07:33:27.508Z,87.20
2017-08-12T07:35:57.527Z,87.70
2017-08-12T07:38:25.026Z,88.50
2017-08-12T07:40:53.357Z,88.80
2017-08-12T07:43:21.028Z,89.50
2017-08-12T07:45:48.838Z,90.00
2017-08-12T07:48:16.369Z,90.00
2017-08-12T07:50:45.023Z,90.30
2017-08-12T07:53:12.579Z,90.30
2017-08-12T07:55:40.192Z,90.60
2017-08-12T07:58:08.955Z,91.10
2017-08-12T08:00:38.380Z,91.00
2017-08-12T08:03:08.321Z,91.00
2017-08-12T08:05:35.864Z,91.00
2017-08-12T08:08:04.364Z,91.30
2017-08-12T08:10:39.530Z,91.40
2017-08-12T08:13:09.076Z,92.00
2017-08-12T08:15:38.545Z,92.20
2017-08-12T08:18:06.612Z,92.10
2017-08-12T08:20:34.583Z,92.30
2017-08-12T08:23:02.494Z,92.10
2017-08-12T08:25:31.333Z,92.40
2017-08-12T08:27:59.902Z,92.40
2017-08-12T08:30:30.400Z,92.40
2017-08-12T08:32:59.010Z,92.40
2017-08-12T08:35:27.812Z,92.40
2017-08-12T08:37:55.728Z,92.30
2017-08-12T08:40:25.268Z,92.30
2017-08-12T08:42:54.524Z,92.20
2017-08-12T08:45:24.380Z,92.50
2017-08-12T08:47:54.395Z,92.50
2017-08-12T08:50:23.658Z,92.20
2017-08-12T08:52:55.796Z,92.10
2017-08-12T08:55:25.364Z,92.00
2017-08-12T08:57:53.762Z,92.30
2017-08-12T09:00:22.553Z,92.10
2017-08-12T09:02:50.062Z,92.10
2017-08-12T09:05:18.773Z,92.50
2017-08-12T09:07:47.358Z,92.50
2017-08-12T09:10:19.521Z,92.30
2017-08-12T09:12:47.594Z,92.60
2017-08-12T09:15:16.275Z,92.30
2017-08-12T09:17:44.868Z,92.50
2017-08-12T09:20:12.406Z,92.40
2017-08-12T09:22:40.637Z,92.60
2017-08-12T09:25:09.898Z,92.80
2017-08-12T09:27:40.703Z,93.00
2017-08-12T09:30:08.229Z,92.70
2017-08-12T09:32:37.786Z,92.70
2017-08-12T09:35:05.368Z,92.60
2017-08-12T09:37:34.438Z,93.20
2017-08-12T09:40:02.816Z,92.70
2017-08-12T09:42:30.940Z,92.80
2017-08-12T09:44:59.849Z,93.10
2017-08-12T09:47:31.392Z,93.00
2017-08-12T09:50:03.084Z,93.00
2017-08-12T09:52:31.973Z,93.00
2017-08-12T09:55:02.366Z,92.80
2017-08-12T09:57:29.957Z,92.90
2017-08-12T09:59:59.579Z,93.20
2017-08-12T10:02:28.043Z,92.90
2017-08-12T10:04:56.522Z,92.90
2017-08-12T10:07:25.560Z,92.80
2017-08-12T10:09:54.366Z,93.10
2017-08-12T10:12:23.704Z,92.90
2017-08-12T10:14:53.218Z,93.00
2017-08-12T10:17:20.731Z,93.00
2017-08-12T10:19:49.250Z,92.80
2017-08-12T10:22:18.031Z,92.80
2017-08-12T10:24:47.849Z,92.90
2017-08-12T10:27:16.252Z,92.90
2017-08-12T10:29:44.318Z,93.10
2017-08-12T10:32:12.427Z,93.00
2017-08-12T10:34:42.273Z,92.80
2017-08-12T10:37:11.166Z,92.80
2017-08-12T10:39:39.650Z,93.00
2017-08-12T10:42:09.472Z,93.00
2017-08-12T10:44:39.676Z,92.90
2017-08-12T10:47:09.568Z,92.80
2017-08-12T10:49:38.998Z,92.70
2017-08-12T10:52:07.525Z,92.50
2017-08-12T10:54:37.079Z,93.00
2017-08-12T10:57:05.369Z,93.00
2017-08-12T10:59:35.571Z,93.10
2017-08-12T11:02:04.673Z,93.10
2017-08-12T11:04:33.761Z,93.30
2017-08-12T11:07:02.039Z,93.20
2017-08-12T11:09:29.596Z,93.40
2017-08-12T11:11:58.382Z,93.40
2017-08-12T11:14:26.245Z,93.40
2017-08-12T11:16:54.681Z,93.30
2017-08-12T11:19:24.129Z,93.00
2017-08-12T11:21:53.325Z,93.30
2017-08-12T11:24:22.417Z,93.30
2017-08-12T11:26:53.907Z,93.10
2017-08-12T11:29:22.359Z,93.30
2017-08-12T11:31:50.224Z,93.20
2017-08-12T11:34:18.553Z,93.10
2017-08-12T11:36:48.755Z,93.30
2017-08-12T11:39:19.256Z,93.30
2017-08-12T11:41:48.330Z,93.20
2017-08-12T11:44:16.820Z,93.20
2017-08-12T11:46:45.294Z,93.30
2017-08-12T11:49:16.328Z,93.20
2017-08-12T11:51:44.816Z,93.50
2017-08-12T11:54:14.719Z,93.20
2017-08-12T11:56:43.025Z,93.20
2017-08-12T11:59:12.447Z,93.10
2017-08-12T12:01:41.091Z,93.10
2017-08-12T12:04:10.317Z,93.20
2017-08-12T12:06:39.712Z,93.20
2017-08-12T12:09:07.736Z,92.70
2017-08-12T12:11:36.366Z,93.00
2017-08-12T12:14:04.205Z,93.00
2017-08-12T12:16:34.776Z,92.50
2017-08-12T12:19:05.566Z,93.10
2017-08-12T12:21:34.657Z,92.80
2017-08-12T12:24:03.650Z,92.70
2017-08-12T12:26:34.041Z,92.60
2017-08-12T12:29:04.298Z,92.80
2017-08-12T12:31:31.799Z,92.80
2017-08-12T12:34:00.438Z,92.70
2017-08-12T12:36:30.879Z,93.00
2017-08-12T12:38:59.195Z,92.40
2017-08-12T12:41:28.335Z,92.10
2017-08-12T12:43:55.994Z,91.60
2017-08-12T12:46:23.552Z,90.90
2017-08-12T12:48:51.625Z,91.00
2017-08-12T12:51:20.105Z,90.80
2017-08-12T12:53:47.674Z,91.00
2017-08-12T12:56:15.643Z,91.10
2017-08-12T12:58:43.316Z,90.80
2017-08-12T13:01:11.662Z,90.50
2017-08-12T13:03:39.521Z,90.50
2017-08-12T13:06:07.149Z,90.10
2017-08-12T13:08:36.571Z,90.00
2017-08-12T13:11:04.098Z,90.00
2017-08-12T13:13:32.635Z,90.20
2017-08-12T13:16:00.498Z,88.90
2017-08-12T13:18:29.023Z,87.20
2017-08-12T13:21:00.508Z,85.20
2017-08-12T13:23:28.060Z,84.40
2017-08-12T13:25:56.669Z,84.40
2017-08-12T13:28:25.355Z,84.40
2017-08-12T13:30:54.457Z,84.60
2017-08-12T13:33:22.312Z,85.30
2017-08-12T13:35:49.847Z,85.80
2017-08-12T13:38:17.844Z,85.20
2017-08-12T13:40:46.157Z,85.10
2017-08-12T13:43:14.706Z,86.10
2017-08-12T13:45:43.177Z,85.50
2017-08-12T13:48:10.990Z,85.80
2017-08-12T13:50:40.868Z,85.00
2017-08-12T13:53:08.345Z,85.00
2017-08-12T13:55:36.214Z,85.50
2017-08-12T13:58:04.861Z,85.90
2017-08-12T14:00:32.828Z,85.80
2017-08-12T14:03:00.628Z,85.40
2017-08-12T14:05:28.466Z,86.60
2017-08-12T14:07:56.016Z,84.00
2017-08-12T14:10:24.801Z,83.70
2017-08-12T14:12:53.138Z,83.60
2017-08-12T14:15:21.661Z,83.40
2017-08-12T14:17:50.856Z,83.40
2017-08-12T14:20:19.420Z,83.00
2017-08-12T14:22:48.737Z,83.20
2017-08-12T14:25:18.105Z,83.20
2017-08-12T14:27:46.647Z,82.70
2017-08-12T14:30:14.486Z,82.70
2017-08-12T14:32:44.916Z,80.60
2017-08-12T14:35:12.418Z,80.70
2017-08-12T14:37:41.052Z,80.60
2017-08-12T14:40:08.916Z,80.50
2017-08-12T14:42:37.703Z,80.70
2017-08-12T14:45:05.688Z,80.70
2017-08-12T14:47:33.546Z,81.50
2017-08-12T14:50:02.322Z,82.20
2017-08-12T14:52:30.190Z,81.40
2017-08-12T14:54:58.155Z,81.10
2017-08-12T14:57:25.965Z,80.60
2017-08-12T14:59:53.687Z,80.50
2017-08-12T15:02:21.844Z,81.30
2017-08-12T15:04:51.496Z,81.00
2017-08-12T15:07:19.325Z,81.90
2017-08-12T15:09:48.115Z,82.10
2017-08-12T15:12:16.286Z,82.30
2017-08-12T15:14:43.745Z,82.70
2017-08-12T15:17:12.023Z,82.50
2017-08-12T15:19:41.466Z,83.10
2017-08-12T15:22:10.207Z,83.00
2017-08-12T15:24:38.796Z,84.00
2017-08-12T15:27:07.987Z,83.60
2017-08-12T15:32:05.558Z,83.60
2017-08-12T15:34:33.629Z,84.40
2017-08-12T15:37:01.622Z,85.00
2017-08-12T15:39:29.768Z,85.00
2017-08-12T15:41:57.635Z,85.20
2017-08-12T15:44:25.408Z,85.70
2017-08-12T15:46:56.716Z,85.10
2017-08-12T15:49:25.800Z,85.20
2017-08-12T15:51:54.422Z,84.60
2017-08-12T15:54:22.698Z,84.50
2017-08-12T15:56:54.692Z,84.20
2017-08-12T15:59:23.180Z,84.50
2017-08-12T16:01:51.622Z,84.40
2017-08-12T16:04:19.483Z,83.90
2017-08-12T16:06:47.862Z,84.40
2017-08-12T16:09:16.032Z,83.10
2017-08-12T16:11:45.296Z,83.00
2017-08-12T16:14:13.901Z,82.90
2017-08-12T16:16:42.785Z,82.70
2017-08-12T16:19:10.669Z,82.90
2017-08-12T16:21:40.028Z,83.10
2017-08-12T16:24:08.669Z,83.80
2017-08-12T16:26:37.441Z,83.10
2017-08-12T16:29:06.867Z,83.30
2017-08-12T16:31:34.712Z,82.80
2017-08-12T16:34:03.392Z,83.40
2017-08-12T16:36:32.484Z,83.70
2017-08-12T16:39:00.607Z,83.30
2017-08-12T16:41:29.000Z,83.00
2017-08-12T16:43:59.974Z,83.30
2017-08-12T16:46:32.344Z,83.30
2017-08-12T16:49:00.210Z,83.40
2017-08-12T16:51:29.478Z,84.40
2017-08-12T16:53:58.606Z,85.20
2017-08-12T16:56:26.102Z,85.10
2017-08-12T16:58:54.335Z,86.60
2017-08-12T17:01:23.121Z,87.60
2017-08-12T17:03:51.806Z,88.50
2017-08-12T17:06:20.838Z,88.70
2017-08-12T17:08:49.690Z,88.00
2017-08-12T17:11:17.964Z,87.80
2017-08-12T17:13:46.480Z,88.10
2017-08-12T17:16:15.193Z,87.70
2017-08-12T17:18:44.937Z,86.50
2017-08-12T17:21:14.136Z,86.50
2017-08-12T17:23:43.231Z,87.10
2017-08-12T17:26:11.035Z,86.80
2017-08-12T17:28:39.472Z,86.70
2017-08-12T17:31:07.440Z,86.50
2017-08-12T17:33:35.310Z,87.10
2017-08-12T17:36:04.208Z,87.00
2017-08-12T17:38:32.571Z,86.70
2017-08-12T17:41:00.357Z,87.10
2017-08-12T17:43:28.200Z,87.00
2017-08-12T17:45:57.092Z,87.30
2017-08-12T17:48:25.320Z,87.40
2017-08-12T17:50:53.538Z,87.30
2017-08-12T17:53:24.154Z,87.10
2017-08-12T17:55:52.647Z,87.10
2017-08-12T17:58:20.957Z,87.40
2017-08-12T18:00:49.711Z,87.10
2017-08-12T18:03:17.524Z,86.90
2017-08-12T18:05:46.159Z,87.10
2017-08-12T18:08:14.024Z,86.90
2017-08-12T18:10:42.987Z,87.10
2017-08-12T18:13:12.244Z,87.80
2017-08-12T18:15:39.770Z,87.80
2017-08-12T18:18:07.532Z,88.10
2017-08-12T18:20:36.015Z,87.90
2017-08-12T18:23:04.422Z,88.30
2017-08-12T18:25:32.736Z,87.80
2017-08-12T18:28:01.351Z,87.90
2017-08-12T18:30:29.764Z,87.80
2017-08-12T18:32:59.588Z,87.80
2017-08-12T18:35:27.882Z,87.80
2017-08-12T18:37:56.499Z,88.00
2017-08-12T18:40:24.654Z,88.10
2017-08-12T18:42:53.057Z,88.10
2017-08-12T18:45:21.171Z,88.10
2017-08-12T18:47:49.599Z,88.20
2017-08-12T18:50:17.122Z,88.50
2017-08-12T18:52:49.942Z,88.50
2017-08-12T18:55:18.226Z,88.40
2017-08-12T18:57:45.831Z,87.90
2017-08-12T19:00:14.228Z,87.90
2017-08-12T19:02:41.713Z,88.00
2017-08-12T19:05:09.217Z,88.00
2017-08-12T19:07:38.310Z,88.40
2017-08-12T19:10:06.583Z,89.00
2017-08-12T19:12:35.217Z,89.30
2017-08-12T19:15:03.452Z,89.30
2017-08-12T19:17:32.073Z,89.60
2017-08-12T19:20:00.860Z,89.60
2017-08-12T19:22:33.027Z,89.90
2017-08-12T19:25:03.157Z,89.90
2017-08-12T19:27:31.933Z,90.30
2017-08-12T19:29:59.388Z,90.60
2017-08-12T19:32:28.208Z,91.00
2017-08-12T19:34:57.017Z,91.10
2017-08-12T19:37:28.615Z,91.40
2017-08-12T19:39:56.482Z,91.40
2017-08-12T19:42:25.781Z,91.50
2017-08-12T19:44:54.547Z,91.70
2017-08-12T19:47:23.204Z,91.80
2017-08-12T19:49:52.456Z,92.10
2017-08-12T19:52:20.316Z,92.10
2017-08-12T19:54:48.183Z,92.30
2017-08-12T20:00:22.230Z,92.50
2017-08-12T20:02:49.855Z,92.70
2017-08-12T20:05:19.088Z,92.90
2017-08-12T20:07:47.226Z,92.90
2017-08-12T20:10:16.457Z,93.10
2017-08-12T20:12:46.442Z,93.10
2017-08-12T20:15:14.341Z,93.00
2017-08-12T20:17:43.437Z,93.00
2017-08-12T20:20:11.792Z,92.90
2017-08-12T20:22:39.509Z,92.80
2017-08-12T20:25:07.788Z,93.00
2017-08-12T20:27:35.617Z,92.90
2017-08-12T20:30:03.267Z,93.00
2017-08-12T20:32:31.649Z,92.90
2017-08-12T20:35:00.436Z,93.10
2017-08-12T20:37:31.374Z,93.10
2017-08-12T20:40:00.489Z,93.00
2017-08-12T20:42:30.933Z,93.10
2017-08-12T20:45:00.179Z,93.00
2017-08-12T20:47:29.595Z,92.90
2017-08-12T20:49:58.998Z,92.70
2017-08-12T20:52:28.144Z,92.80
2017-08-12T20:54:55.783Z,92.80
2017-08-12T20:57:23.770Z,92.80
2017-08-12T20:59:52.205Z,92.70
2017-08-12T21:02:21.517Z,92.80
2017-08-12T21:04:51.525Z,92.90
2017-08-12T21:07:21.222Z,92.90
2017-08-12T21:09:50.339Z,92.90
2017-08-12T21:12:20.230Z,93.00
2017-08-12T21:14:50.015Z,93.00
2017-08-12T21:17:18.123Z,93.10
2017-08-12T21:19:45.866Z,93.00
2017-08-12T21:22:14.912Z,93.00
2017-08-12T21:24:43.206Z,93.10
2017-08-12T21:27:12.351Z,93.10
2017-08-12T21:29:40.671Z,93.10
2017-08-12T21:32:10.527Z,93.10
2017-08-12T21:34:38.393Z,93.10
2017-08-12T21:37:07.118Z,93.00
2017-08-12T21:39:37.706Z,92.90
2017-08-12T21:42:06.998Z,93.00
2017-08-12T21:44:34.884Z,93.10
2017-08-12T21:47:07.287Z,93.10
2017-08-12T21:49:34.832Z,93.50
2017-08-12T21:52:02.566Z,93.00
2017-08-12T21:54:31.588Z,93.00
2017-08-12T21:57:00.713Z,93.00
2017-08-12T21:59:29.475Z,93.20
2017-08-12T22:01:56.929Z,93.10
2017-08-12T22:04:34.328Z,93.20
2017-08-12T22:07:04.504Z,93.30
2017-08-12T22:09:37.806Z,93.20
2017-08-12T22:12:09.171Z,93.20
2017-08-12T22:14:46.627Z,93.20
2017-08-12T22:17:15.936Z,93.30
2017-08-12T22:19:44.255Z,93.30
2017-08-12T22:22:17.232Z,93.30
2017-08-12T22:24:49.344Z,93.10
2017-08-12T22:27:17.932Z,93.10
2017-08-12T22:29:47.287Z,93.20
2017-08-12T22:32:18.415Z,93.40
2017-08-12T22:34:48.918Z,93.40
2017-08-12T22:37:19.232Z,93.40
2017-08-12T22:39:52.678Z,93.40
2017-08-12T22:42:23.476Z,93.80
2017-08-12T22:44:53.236Z,93.50
2017-08-12T22:47:22.716Z,93.50
2017-08-12T22:49:51.050Z,93.60
2017-08-12T22:52:20.111Z,93.50
2017-08-12T22:54:48.041Z,93.60
2017-08-12T22:57:16.608Z,93.60
2017-08-12T22:59:46.187Z,93.70
2017-08-12T23:02:15.557Z,93.70
2017-08-12T23:04:44.772Z,93.70
2017-08-12T23:07:13.760Z,93.60
2017-08-12T23:09:46.573Z,93.60
2017-08-12T23:12:15.777Z,93.70
2017-08-12T23:14:46.028Z,93.70
2017-08-12T23:17:16.708Z,93.70
2017-08-12T23:19:49.925Z,93.70
2017-08-12T23:22:23.444Z,93.70
2017-08-12T23:24:53.653Z,93.70
2017-08-12T23:27:23.977Z,93.80
2017-08-12T23:29:55.300Z,93.80
2017-08-12T23:32:25.876Z,93.70
2017-08-12T23:34:58.511Z,93.70
2017-08-12T23:37:28.912Z,93.70
2017-08-12T23:39:59.885Z,93.70
2017-08-12T23:42:29.433Z,93.60
2017-08-12T23:45:00.104Z,93.50
2017-08-12T23:47:30.326Z,93.50
2017-08-12T23:49:59.400Z,93.50
2017-08-12T23:52:28.289Z,93.50
2017-08-12T23:54:57.145Z,93.40
2017-08-12T23:57:29.538Z,93.50
2017-08-12T23:59:57.677Z,93.20
